sensor_id;sensor_type;location;lat;lon;timestamp;P1;durP1;ratioP1;P2;durP2;ratioP2
62880;SDS011;48969;49.934;8.596;2022-10-16T00:00:29;4.43;;;3.40;;
62880;SDS011;48969;49.934;8.596;2022-10-16T00:02:54;4.70;;;3.53;;
62880;SDS011;48969;49.934;8.596;2022-10-16T00:05:20;4.53;;;3.10;;
62880;SDS011;48969;49.934;8.596;2022-10-16T00:07:45;4.63;;;3.08;;
62880;SDS011;48969;49.934;8.596;2022-10-16T00:10:10;5.33;;;3.40;;
62880;SDS011;48969;49.934;8.596;2022-10-16T00:12:35;4.30;;;3.40;;
62880;SDS011;48969;49.934;8.596;2022-10-16T00:15:00;4.40;;;3.20;;
62880;SDS011;48969;49.934;8.596;2022-10-16T00:17:26;5.50;;;3.88;;
62880;SDS011;48969;49.934;8.596;2022-10-16T00:19:51;5.20;;;3.70;;
62880;SDS011;48969;49.934;8.596;2022-10-16T00:22:16;3.42;;;3.08;;
62880;SDS011;48969;49.934;8.596;2022-10-16T00:24:41;3.30;;;2.60;;
62880;SDS011;48969;49.934;8.596;2022-10-16T00:27:06;4.57;;;3.08;;
62880;SDS011;48969;49.934;8.596;2022-10-16T00:29:31;3.05;;;2.75;;
62880;SDS011;48969;49.934;8.596;2022-10-16T00:31:56;3.70;;;2.70;;
62880;SDS011;48969;49.934;8.596;2022-10-16T00:34:22;4.07;;;2.80;;
62880;SDS011;48969;49.934;8.596;2022-10-16T00:36:47;5.00;;;3.23;;
62880;SDS011;48969;49.934;8.596;2022-10-16T00:39:12;5.70;;;3.10;;
62880;SDS011;48969;49.934;8.596;2022-10-16T00:41:37;5.30;;;2.93;;
62880;SDS011;48969;49.934;8.596;2022-10-16T00:44:03;4.87;;;2.80;;
62880;SDS011;48969;49.934;8.596;2022-10-16T00:51:21;6.93;;;2.70;;
62880;SDS011;48969;49.934;8.596;2022-10-16T00:53:47;3.35;;;2.42;;
62880;SDS011;48969;49.934;8.596;2022-10-16T00:56:13;4.53;;;2.70;;
62880;SDS011;48969;49.934;8.596;2022-10-16T00:58:38;3.60;;;2.60;;
62880;SDS011;48969;49.934;8.596;2022-10-16T01:01:03;2.40;;;2.17;;
62880;SDS011;48969;49.934;8.596;2022-10-16T01:03:30;3.63;;;1.97;;
62880;SDS011;48969;49.934;8.596;2022-10-16T01:06:19;2.90;;;2.00;;
62880;SDS011;48969;49.934;8.596;2022-10-16T01:08:45;4.65;;;1.90;;
62880;SDS011;48969;49.934;8.596;2022-10-16T01:13:41;3.65;;;1.80;;
62880;SDS011;48969;49.934;8.596;2022-10-16T01:16:24;6.20;;;1.90;;
62880;SDS011;48969;49.934;8.596;2022-10-16T01:18:54;2.95;;;1.70;;
62880;SDS011;48969;49.934;8.596;2022-10-16T01:21:22;1.67;;;1.57;;
62880;SDS011;48969;49.934;8.596;2022-10-16T01:27:22;2.53;;;1.40;;
62880;SDS011;48969;49.934;8.596;2022-10-16T01:29:16;2.42;;;1.40;;
62880;SDS011;48969;49.934;8.596;2022-10-16T01:31:44;1.35;;;1.15;;
62880;SDS011;48969;49.934;8.596;2022-10-16T01:34:16;1.42;;;1.33;;
62880;SDS011;48969;49.934;8.596;2022-10-16T01:36:46;3.40;;;1.40;;
62880;SDS011;48969;49.934;8.596;2022-10-16T01:39:13;2.65;;;1.30;;
62880;SDS011;48969;49.934;8.596;2022-10-16T01:41:46;3.20;;;1.27;;
62880;SDS011;48969;49.934;8.596;2022-10-16T01:44:16;1.98;;;1.15;;
62880;SDS011;48969;49.934;8.596;2022-10-16T01:46:42;1.52;;;1.20;;
62880;SDS011;48969;49.934;8.596;2022-10-16T01:49:08;5.20;;;1.85;;
62880;SDS011;48969;49.934;8.596;2022-10-16T01:51:34;1.30;;;1.20;;
62880;SDS011;48969;49.934;8.596;2022-10-16T01:54:00;1.67;;;1.15;;
62880;SDS011;48969;49.934;8.596;2022-10-16T01:56:26;2.25;;;1.23;;
62880;SDS011;48969;49.934;8.596;2022-10-16T01:58:54;1.83;;;1.05;;
62880;SDS011;48969;49.934;8.596;2022-10-16T02:01:21;1.20;;;1.10;;
62880;SDS011;48969;49.934;8.596;2022-10-16T02:03:48;2.17;;;0.90;;
62880;SDS011;48969;49.934;8.596;2022-10-16T02:06:14;1.20;;;1.10;;
62880;SDS011;48969;49.934;8.596;2022-10-16T02:08:39;2.70;;;1.38;;
62880;SDS011;48969;49.934;8.596;2022-10-16T02:11:08;1.40;;;1.10;;
62880;SDS011;48969;49.934;8.596;2022-10-16T02:13:38;2.03;;;1.30;;
62880;SDS011;48969;49.934;8.596;2022-10-16T02:16:03;1.30;;;1.20;;
62880;SDS011;48969;49.934;8.596;2022-10-16T02:18:29;1.63;;;1.10;;
62880;SDS011;48969;49.934;8.596;2022-10-16T02:20:59;1.55;;;1.40;;
62880;SDS011;48969;49.934;8.596;2022-10-16T02:23:30;1.52;;;1.42;;
62880;SDS011;48969;49.934;8.596;2022-10-16T02:25:58;2.33;;;1.40;;
62880;SDS011;48969;49.934;8.596;2022-10-16T02:28:24;2.55;;;1.50;;
62880;SDS011;48969;49.934;8.596;2022-10-16T02:30:56;6.65;;;1.58;;
62880;SDS011;48969;49.934;8.596;2022-10-16T02:33:22;2.47;;;1.50;;
62880;SDS011;48969;49.934;8.596;2022-10-16T02:35:49;2.75;;;1.67;;
62880;SDS011;48969;49.934;8.596;2022-10-16T02:38:16;2.17;;;1.90;;
62880;SDS011;48969;49.934;8.596;2022-10-16T02:40:41;3.25;;;1.98;;
62880;SDS011;48969;49.934;8.596;2022-10-16T02:43:07;3.38;;;1.55;;
62880;SDS011;48969;49.934;8.596;2022-10-16T02:45:32;2.60;;;1.60;;
62880;SDS011;48969;49.934;8.596;2022-10-16T02:47:58;2.70;;;1.52;;
62880;SDS011;48969;49.934;8.596;2022-10-16T02:50:23;2.90;;;1.85;;
62880;SDS011;48969;49.934;8.596;2022-10-16T02:52:50;1.70;;;1.60;;
62880;SDS011;48969;49.934;8.596;2022-10-16T02:55:15;3.33;;;2.03;;
62880;SDS011;48969;49.934;8.596;2022-10-16T02:57:40;2.90;;;1.80;;
62880;SDS011;48969;49.934;8.596;2022-10-16T03:00:06;3.60;;;2.20;;
62880;SDS011;48969;49.934;8.596;2022-10-16T03:02:31;3.10;;;2.05;;
62880;SDS011;48969;49.934;8.596;2022-10-16T03:04:56;2.30;;;2.10;;
62880;SDS011;48969;49.934;8.596;2022-10-16T03:07:22;2.92;;;2.05;;
62880;SDS011;48969;49.934;8.596;2022-10-16T03:09:47;5.53;;;2.30;;
62880;SDS011;48969;49.934;8.596;2022-10-16T03:12:12;3.78;;;2.22;;
62880;SDS011;48969;49.934;8.596;2022-10-16T03:14:37;3.27;;;2.30;;
62880;SDS011;48969;49.934;8.596;2022-10-16T03:17:04;4.28;;;2.40;;
62880;SDS011;48969;49.934;8.596;2022-10-16T03:19:29;3.07;;;2.60;;
62880;SDS011;48969;49.934;8.596;2022-10-16T03:21:55;4.10;;;2.80;;
62880;SDS011;48969;49.934;8.596;2022-10-16T03:24:20;3.43;;;2.70;;
62880;SDS011;48969;49.934;8.596;2022-10-16T03:26:45;4.00;;;2.97;;
62880;SDS011;48969;49.934;8.596;2022-10-16T03:29:10;5.70;;;3.35;;
62880;SDS011;48969;49.934;8.596;2022-10-16T03:31:35;4.67;;;3.10;;
62880;SDS011;48969;49.934;8.596;2022-10-16T03:34:00;4.63;;;3.00;;
62880;SDS011;48969;49.934;8.596;2022-10-16T03:36:26;3.10;;;2.80;;
62880;SDS011;48969;49.934;8.596;2022-10-16T03:38:51;4.75;;;2.90;;
62880;SDS011;48969;49.934;8.596;2022-10-16T03:41:16;4.50;;;2.90;;
62880;SDS011;48969;49.934;8.596;2022-10-16T03:43:41;3.20;;;2.85;;
62880;SDS011;48969;49.934;8.596;2022-10-16T03:46:06;4.97;;;3.20;;
62880;SDS011;48969;49.934;8.596;2022-10-16T03:48:32;4.47;;;3.03;;
62880;SDS011;48969;49.934;8.596;2022-10-16T03:50:57;4.13;;;2.70;;
62880;SDS011;48969;49.934;8.596;2022-10-16T03:53:22;3.20;;;2.50;;
62880;SDS011;48969;49.934;8.596;2022-10-16T03:55:47;3.73;;;2.80;;
62880;SDS011;48969;49.934;8.596;2022-10-16T03:58:13;4.38;;;2.50;;
62880;SDS011;48969;49.934;8.596;2022-10-16T04:00:41;5.60;;;2.40;;
62880;SDS011;48969;49.934;8.596;2022-10-16T04:03:06;3.30;;;2.33;;
62880;SDS011;48969;49.934;8.596;2022-10-16T04:05:31;2.47;;;1.93;;
62880;SDS011;48969;49.934;8.596;2022-10-16T04:07:56;4.10;;;2.00;;
62880;SDS011;48969;49.934;8.596;2022-10-16T04:10:22;2.15;;;1.88;;
62880;SDS011;48969;49.934;8.596;2022-10-16T04:12:47;3.03;;;2.05;;
62880;SDS011;48969;49.934;8.596;2022-10-16T04:15:12;1.95;;;1.83;;
62880;SDS011;48969;49.934;8.596;2022-10-16T04:17:38;3.67;;;2.00;;
62880;SDS011;48969;49.934;8.596;2022-10-16T04:20:03;2.10;;;1.80;;
62880;SDS011;48969;49.934;8.596;2022-10-16T04:22:28;2.58;;;1.80;;
62880;SDS011;48969;49.934;8.596;2022-10-16T04:24:53;3.30;;;2.10;;
62880;SDS011;48969;49.934;8.596;2022-10-16T04:27:19;2.45;;;1.90;;
62880;SDS011;48969;49.934;8.596;2022-10-16T04:29:44;3.17;;;1.70;;
62880;SDS011;48969;49.934;8.596;2022-10-16T04:32:09;5.43;;;1.73;;
62880;SDS011;48969;49.934;8.596;2022-10-16T04:34:34;2.30;;;2.00;;
62880;SDS011;48969;49.934;8.596;2022-10-16T04:36:59;2.03;;;1.85;;
62880;SDS011;48969;49.934;8.596;2022-10-16T04:39:25;2.88;;;1.90;;
62880;SDS011;48969;49.934;8.596;2022-10-16T04:41:50;2.78;;;2.33;;
62880;SDS011;48969;49.934;8.596;2022-10-16T04:44:15;3.55;;;2.35;;
62880;SDS011;48969;49.934;8.596;2022-10-16T04:46:40;2.43;;;2.23;;
62880;SDS011;48969;49.934;8.596;2022-10-16T04:49:05;2.47;;;2.28;;
62880;SDS011;48969;49.934;8.596;2022-10-16T04:51:30;2.83;;;2.50;;
62880;SDS011;48969;49.934;8.596;2022-10-16T04:53:56;2.80;;;2.60;;
62880;SDS011;48969;49.934;8.596;2022-10-16T04:56:21;4.10;;;2.93;;
62880;SDS011;48969;49.934;8.596;2022-10-16T04:58:46;4.80;;;3.05;;
62880;SDS011;48969;49.934;8.596;2022-10-16T05:01:12;4.13;;;3.20;;
62880;SDS011;48969;49.934;8.596;2022-10-16T05:03:37;5.32;;;3.35;;
62880;SDS011;48969;49.934;8.596;2022-10-16T05:06:04;3.73;;;3.10;;
62880;SDS011;48969;49.934;8.596;2022-10-16T05:08:29;5.85;;;4.13;;
62880;SDS011;48969;49.934;8.596;2022-10-16T05:10:54;5.18;;;4.45;;
62880;SDS011;48969;49.934;8.596;2022-10-16T05:13:20;6.30;;;4.37;;
62880;SDS011;48969;49.934;8.596;2022-10-16T05:15:48;5.28;;;3.97;;
62880;SDS011;48969;49.934;8.596;2022-10-16T05:18:14;4.85;;;4.13;;
62880;SDS011;48969;49.934;8.596;2022-10-16T05:20:39;6.03;;;4.45;;
62880;SDS011;48969;49.934;8.596;2022-10-16T05:23:04;5.40;;;4.50;;
62880;SDS011;48969;49.934;8.596;2022-10-16T05:25:30;6.63;;;4.50;;
62880;SDS011;48969;49.934;8.596;2022-10-16T05:27:55;6.65;;;4.35;;
62880;SDS011;48969;49.934;8.596;2022-10-16T05:30:20;6.43;;;5.07;;
62880;SDS011;48969;49.934;8.596;2022-10-16T05:32:46;4.82;;;4.32;;
62880;SDS011;48969;49.934;8.596;2022-10-16T05:35:11;5.97;;;4.75;;
62880;SDS011;48969;49.934;8.596;2022-10-16T05:37:37;6.22;;;4.43;;
62880;SDS011;48969;49.934;8.596;2022-10-16T05:40:02;7.77;;;4.37;;
62880;SDS011;48969;49.934;8.596;2022-10-16T05:42:28;7.78;;;4.82;;
62880;SDS011;48969;49.934;8.596;2022-10-16T05:44:54;8.50;;;4.47;;
62880;SDS011;48969;49.934;8.596;2022-10-16T05:47:19;5.63;;;4.07;;
62880;SDS011;48969;49.934;8.596;2022-10-16T05:49:45;6.35;;;4.68;;
62880;SDS011;48969;49.934;8.596;2022-10-16T05:52:11;5.57;;;4.20;;
62880;SDS011;48969;49.934;8.596;2022-10-16T05:54:36;5.17;;;4.57;;
62880;SDS011;48969;49.934;8.596;2022-10-16T05:57:01;5.27;;;4.40;;
62880;SDS011;48969;49.934;8.596;2022-10-16T05:59:27;5.18;;;3.97;;
62880;SDS011;48969;49.934;8.596;2022-10-16T06:01:52;7.73;;;4.80;;
62880;SDS011;48969;49.934;8.596;2022-10-16T06:04:18;5.40;;;4.50;;
62880;SDS011;48969;49.934;8.596;2022-10-16T06:06:43;8.27;;;4.83;;
62880;SDS011;48969;49.934;8.596;2022-10-16T06:09:09;5.37;;;4.10;;
62880;SDS011;48969;49.934;8.596;2022-10-16T06:11:34;5.00;;;4.10;;
62880;SDS011;48969;49.934;8.596;2022-10-16T06:14:00;4.45;;;3.85;;
62880;SDS011;48969;49.934;8.596;2022-10-16T06:16:27;5.80;;;4.57;;
62880;SDS011;48969;49.934;8.596;2022-10-16T06:18:53;6.28;;;4.93;;
62880;SDS011;48969;49.934;8.596;2022-10-16T06:21:20;5.07;;;4.25;;
62880;SDS011;48969;49.934;8.596;2022-10-16T06:23:45;7.05;;;4.32;;
62880;SDS011;48969;49.934;8.596;2022-10-16T06:26:12;5.82;;;4.20;;
62880;SDS011;48969;49.934;8.596;2022-10-16T06:28:38;4.88;;;4.07;;
62880;SDS011;48969;49.934;8.596;2022-10-16T06:31:04;4.80;;;4.15;;
62880;SDS011;48969;49.934;8.596;2022-10-16T06:33:29;4.90;;;4.18;;
62880;SDS011;48969;49.934;8.596;2022-10-16T06:36:28;5.75;;;4.35;;
62880;SDS011;48969;49.934;8.596;2022-10-16T06:38:46;6.45;;;4.35;;
62880;SDS011;48969;49.934;8.596;2022-10-16T06:41:13;6.37;;;4.63;;
62880;SDS011;48969;49.934;8.596;2022-10-16T06:43:38;7.00;;;5.03;;
62880;SDS011;48969;49.934;8.596;2022-10-16T06:46:04;5.95;;;4.70;;
62880;SDS011;48969;49.934;8.596;2022-10-16T06:48:30;6.90;;;5.00;;
62880;SDS011;48969;49.934;8.596;2022-10-16T06:53:20;8.70;;;5.10;;
62880;SDS011;48969;49.934;8.596;2022-10-16T06:55:45;9.03;;;5.60;;
62880;SDS011;48969;49.934;8.596;2022-10-16T06:58:10;8.50;;;5.22;;
62880;SDS011;48969;49.934;8.596;2022-10-16T07:00:35;5.80;;;5.13;;
62880;SDS011;48969;49.934;8.596;2022-10-16T07:03:01;5.87;;;4.93;;
62880;SDS011;48969;49.934;8.596;2022-10-16T07:05:26;7.65;;;5.30;;
62880;SDS011;48969;49.934;8.596;2022-10-16T07:07:51;5.63;;;4.87;;
62880;SDS011;48969;49.934;8.596;2022-10-16T07:10:16;8.57;;;5.38;;
62880;SDS011;48969;49.934;8.596;2022-10-16T07:12:41;6.25;;;4.85;;
62880;SDS011;48969;49.934;8.596;2022-10-16T07:15:07;5.68;;;4.65;;
62880;SDS011;48969;49.934;8.596;2022-10-16T07:17:32;6.13;;;4.93;;
62880;SDS011;48969;49.934;8.596;2022-10-16T07:19:57;6.43;;;4.83;;
62880;SDS011;48969;49.934;8.596;2022-10-16T07:22:22;8.63;;;5.20;;
62880;SDS011;48969;49.934;8.596;2022-10-16T07:24:48;5.97;;;4.82;;
62880;SDS011;48969;49.934;8.596;2022-10-16T07:27:13;7.30;;;5.70;;
62880;SDS011;48969;49.934;8.596;2022-10-16T07:29:38;6.70;;;4.97;;
62880;SDS011;48969;49.934;8.596;2022-10-16T07:32:03;7.63;;;5.25;;
62880;SDS011;48969;49.934;8.596;2022-10-16T07:34:28;7.55;;;5.43;;
62880;SDS011;48969;49.934;8.596;2022-10-16T07:36:54;6.90;;;5.82;;
62880;SDS011;48969;49.934;8.596;2022-10-16T07:39:19;7.20;;;5.38;;
62880;SDS011;48969;49.934;8.596;2022-10-16T07:41:44;7.70;;;5.20;;
62880;SDS011;48969;49.934;8.596;2022-10-16T07:44:10;6.40;;;4.80;;
62880;SDS011;48969;49.934;8.596;2022-10-16T07:46:35;5.50;;;4.63;;
62880;SDS011;48969;49.934;8.596;2022-10-16T07:49:01;7.88;;;5.00;;
62880;SDS011;48969;49.934;8.596;2022-10-16T07:51:26;5.63;;;4.63;;
62880;SDS011;48969;49.934;8.596;2022-10-16T07:53:52;6.65;;;4.70;;
62880;SDS011;48969;49.934;8.596;2022-10-16T07:56:17;5.47;;;4.65;;
62880;SDS011;48969;49.934;8.596;2022-10-16T07:58:43;7.13;;;4.63;;
62880;SDS011;48969;49.934;8.596;2022-10-16T08:01:10;8.65;;;5.20;;
62880;SDS011;48969;49.934;8.596;2022-10-16T08:03:36;7.28;;;4.72;;
62880;SDS011;48969;49.934;8.596;2022-10-16T08:06:01;6.90;;;4.75;;
62880;SDS011;48969;49.934;8.596;2022-10-16T08:08:27;6.18;;;4.55;;
62880;SDS011;48969;49.934;8.596;2022-10-16T08:10:52;5.47;;;4.25;;
62880;SDS011;48969;49.934;8.596;2022-10-16T08:13:17;6.60;;;4.90;;
62880;SDS011;48969;49.934;8.596;2022-10-16T08:15:43;9.07;;;5.05;;
62880;SDS011;48969;49.934;8.596;2022-10-16T08:18:09;10.13;;;5.13;;
62880;SDS011;48969;49.934;8.596;2022-10-16T08:20:34;7.38;;;4.90;;
62880;SDS011;48969;49.934;8.596;2022-10-16T08:23:00;7.00;;;5.10;;
62880;SDS011;48969;49.934;8.596;2022-10-16T08:25:25;6.07;;;4.50;;
62880;SDS011;48969;49.934;8.596;2022-10-16T08:27:50;6.10;;;4.45;;
62880;SDS011;48969;49.934;8.596;2022-10-16T08:30:16;5.50;;;4.17;;
62880;SDS011;48969;49.934;8.596;2022-10-16T08:32:42;4.75;;;4.18;;
62880;SDS011;48969;49.934;8.596;2022-10-16T08:35:10;4.38;;;3.97;;
62880;SDS011;48969;49.934;8.596;2022-10-16T08:37:36;5.18;;;4.30;;
62880;SDS011;48969;49.934;8.596;2022-10-16T08:40:02;8.60;;;5.00;;
62880;SDS011;48969;49.934;8.596;2022-10-16T08:45:27;6.55;;;4.30;;
62880;SDS011;48969;49.934;8.596;2022-10-16T08:50:25;6.07;;;4.53;;
62880;SDS011;48969;49.934;8.596;2022-10-16T08:52:52;6.50;;;4.50;;
62880;SDS011;48969;49.934;8.596;2022-10-16T08:57:52;6.68;;;4.47;;
62880;SDS011;48969;49.934;8.596;2022-10-16T09:00:17;5.97;;;4.60;;
62880;SDS011;48969;49.934;8.596;2022-10-16T09:05:17;5.18;;;4.28;;
62880;SDS011;48969;49.934;8.596;2022-10-16T09:15:13;5.32;;;4.05;;
62880;SDS011;48969;49.934;8.596;2022-10-16T09:17:41;7.93;;;4.45;;
62880;SDS011;48969;49.934;8.596;2022-10-16T09:20:30;5.78;;;4.18;;
62880;SDS011;48969;49.934;8.596;2022-10-16T09:25:28;6.47;;;4.30;;
62880;SDS011;48969;49.934;8.596;2022-10-16T09:27:54;7.22;;;4.75;;
62880;SDS011;48969;49.934;8.596;2022-10-16T09:30:20;6.88;;;4.10;;
62880;SDS011;48969;49.934;8.596;2022-10-16T09:32:46;6.53;;;4.32;;
62880;SDS011;48969;49.934;8.596;2022-10-16T09:35:22;6.50;;;4.50;;
62880;SDS011;48969;49.934;8.596;2022-10-16T09:37:51;5.50;;;4.70;;
62880;SDS011;48969;49.934;8.596;2022-10-16T09:40:39;7.03;;;4.88;;
62880;SDS011;48969;49.934;8.596;2022-10-16T09:46:21;6.57;;;4.35;;
62880;SDS011;48969;49.934;8.596;2022-10-16T09:48:48;7.20;;;4.00;;
62880;SDS011;48969;49.934;8.596;2022-10-16T09:51:21;6.40;;;4.30;;
62880;SDS011;48969;49.934;8.596;2022-10-16T09:53:46;5.85;;;4.40;;
62880;SDS011;48969;49.934;8.596;2022-10-16T09:56:20;6.32;;;4.15;;
62880;SDS011;48969;49.934;8.596;2022-10-16T09:58:53;5.82;;;4.90;;
62880;SDS011;48969;49.934;8.596;2022-10-16T10:01:18;5.63;;;4.38;;
62880;SDS011;48969;49.934;8.596;2022-10-16T10:03:44;5.72;;;4.72;;
62880;SDS011;48969;49.934;8.596;2022-10-16T10:06:23;5.95;;;4.65;;
62880;SDS011;48969;49.934;8.596;2022-10-16T10:08:53;5.55;;;4.53;;
62880;SDS011;48969;49.934;8.596;2022-10-16T10:11:29;6.95;;;4.60;;
62880;SDS011;48969;49.934;8.596;2022-10-16T10:17:06;5.97;;;4.20;;
62880;SDS011;48969;49.934;8.596;2022-10-16T10:19:41;5.80;;;4.90;;
62880;SDS011;48969;49.934;8.596;2022-10-16T10:22:22;5.13;;;4.55;;
62880;SDS011;48969;49.934;8.596;2022-10-16T10:27:56;6.88;;;5.32;;
62880;SDS011;48969;49.934;8.596;2022-10-16T10:33:20;6.63;;;5.07;;
62880;SDS011;48969;49.934;8.596;2022-10-16T10:35:50;7.82;;;4.90;;
62880;SDS011;48969;49.934;8.596;2022-10-16T10:41:20;5.40;;;4.90;;
62880;SDS011;48969;49.934;8.596;2022-10-16T10:51:59;5.07;;;4.57;;
62880;SDS011;48969;49.934;8.596;2022-10-16T10:57:34;5.20;;;4.30;;
62880;SDS011;48969;49.934;8.596;2022-10-16T11:00:06;5.13;;;4.15;;
62880;SDS011;48969;49.934;8.596;2022-10-16T11:03:03;4.85;;;3.90;;
62880;SDS011;48969;49.934;8.596;2022-10-16T11:10:35;4.47;;;3.87;;
62880;SDS011;48969;49.934;8.596;2022-10-16T11:13:17;4.18;;;3.65;;
62880;SDS011;48969;49.934;8.596;2022-10-16T11:15:44;4.72;;;3.65;;
62880;SDS011;48969;49.934;8.596;2022-10-16T11:20:52;4.40;;;3.35;;
62880;SDS011;48969;49.934;8.596;2022-10-16T11:25:50;5.18;;;3.80;;
62880;SDS011;48969;49.934;8.596;2022-10-16T11:28:18;4.65;;;3.58;;
62880;SDS011;48969;49.934;8.596;2022-10-16T11:30:47;6.22;;;3.75;;
62880;SDS011;48969;49.934;8.596;2022-10-16T11:35:57;4.57;;;3.40;;
62880;SDS011;48969;49.934;8.596;2022-10-16T11:41:32;5.03;;;3.63;;
62880;SDS011;48969;49.934;8.596;2022-10-16T11:46:21;4.82;;;4.00;;
62880;SDS011;48969;49.934;8.596;2022-10-16T11:48:54;7.10;;;3.53;;
62880;SDS011;48969;49.934;8.596;2022-10-16T11:56:36;3.40;;;3.08;;
62880;SDS011;48969;49.934;8.596;2022-10-16T11:59:05;3.45;;;2.95;;
62880;SDS011;48969;49.934;8.596;2022-10-16T12:01:33;4.57;;;3.15;;
62880;SDS011;48969;49.934;8.596;2022-10-16T12:04:13;4.43;;;3.15;;
62880;SDS011;48969;49.934;8.596;2022-10-16T12:09:15;3.47;;;3.00;;
62880;SDS011;48969;49.934;8.596;2022-10-16T12:12:01;3.85;;;3.28;;
62880;SDS011;48969;49.934;8.596;2022-10-16T12:14:35;4.33;;;3.17;;
62880;SDS011;48969;49.934;8.596;2022-10-16T12:17:20;5.55;;;3.08;;
62880;SDS011;48969;49.934;8.596;2022-10-16T12:19:56;4.95;;;3.50;;
62880;SDS011;48969;49.934;8.596;2022-10-16T12:22:21;4.22;;;3.58;;
62880;SDS011;48969;49.934;8.596;2022-10-16T12:27:38;4.53;;;3.03;;
62880;SDS011;48969;49.934;8.596;2022-10-16T12:30:06;3.88;;;2.58;;
62880;SDS011;48969;49.934;8.596;2022-10-16T12:32:39;4.18;;;2.58;;
62880;SDS011;48969;49.934;8.596;2022-10-16T12:35:17;3.85;;;2.92;;
62880;SDS011;48969;49.934;8.596;2022-10-16T12:37:46;3.85;;;2.75;;
62880;SDS011;48969;49.934;8.596;2022-10-16T12:48:50;3.42;;;2.80;;
62880;SDS011;48969;49.934;8.596;2022-10-16T12:51:22;2.97;;;2.67;;
62880;SDS011;48969;49.934;8.596;2022-10-16T12:54:00;3.20;;;2.90;;
62880;SDS011;48969;49.934;8.596;2022-10-16T12:56:30;3.55;;;2.63;;
62880;SDS011;48969;49.934;8.596;2022-10-16T13:01:29;3.70;;;2.80;;
62880;SDS011;48969;49.934;8.596;2022-10-16T13:04:10;3.35;;;3.00;;
62880;SDS011;48969;49.934;8.596;2022-10-16T13:14:43;4.13;;;3.53;;
62880;SDS011;48969;49.934;8.596;2022-10-16T13:28:14;4.05;;;3.60;;
62880;SDS011;48969;49.934;8.596;2022-10-16T13:30:53;4.97;;;3.75;;
62880;SDS011;48969;49.934;8.596;2022-10-16T13:33:39;4.85;;;3.58;;
62880;SDS011;48969;49.934;8.596;2022-10-16T13:39:29;3.70;;;3.40;;
62880;SDS011;48969;49.934;8.596;2022-10-16T13:42:02;6.25;;;4.57;;
62880;SDS011;48969;49.934;8.596;2022-10-16T13:53:51;4.00;;;3.63;;
62880;SDS011;48969;49.934;8.596;2022-10-16T13:56:20;4.60;;;4.20;;
62880;SDS011;48969;49.934;8.596;2022-10-16T13:58:46;4.97;;;4.18;;
62880;SDS011;48969;49.934;8.596;2022-10-16T14:01:41;6.68;;;4.40;;
62880;SDS011;48969;49.934;8.596;2022-10-16T14:04:11;4.75;;;4.35;;
62880;SDS011;48969;49.934;8.596;2022-10-16T14:06:40;5.72;;;4.10;;
62880;SDS011;48969;49.934;8.596;2022-10-16T14:09:12;5.35;;;4.55;;
62880;SDS011;48969;49.934;8.596;2022-10-16T14:11:51;4.95;;;4.43;;
62880;SDS011;48969;49.934;8.596;2022-10-16T14:14:20;4.78;;;4.28;;
62880;SDS011;48969;49.934;8.596;2022-10-16T14:17:09;4.03;;;3.70;;
62880;SDS011;48969;49.934;8.596;2022-10-16T14:19:44;5.13;;;4.30;;
62880;SDS011;48969;49.934;8.596;2022-10-16T14:22:26;4.93;;;4.40;;
62880;SDS011;48969;49.934;8.596;2022-10-16T14:24:54;4.88;;;4.22;;
62880;SDS011;48969;49.934;8.596;2022-10-16T14:32:55;6.63;;;4.00;;
62880;SDS011;48969;49.934;8.596;2022-10-16T14:35:28;4.50;;;4.10;;
62880;SDS011;48969;49.934;8.596;2022-10-16T14:37:55;5.38;;;3.78;;
62880;SDS011;48969;49.934;8.596;2022-10-16T14:40:23;4.72;;;3.90;;
62880;SDS011;48969;49.934;8.596;2022-10-16T14:42:48;6.28;;;3.80;;
62880;SDS011;48969;49.934;8.596;2022-10-16T14:45:15;4.00;;;3.60;;
62880;SDS011;48969;49.934;8.596;2022-10-16T14:47:48;5.20;;;4.10;;
62880;SDS011;48969;49.934;8.596;2022-10-16T14:50:14;4.38;;;3.97;;
62880;SDS011;48969;49.934;8.596;2022-10-16T14:52:39;4.35;;;3.92;;
62880;SDS011;48969;49.934;8.596;2022-10-16T14:55:04;4.53;;;3.67;;
62880;SDS011;48969;49.934;8.596;2022-10-16T14:57:30;5.38;;;3.88;;
62880;SDS011;48969;49.934;8.596;2022-10-16T14:59:56;4.53;;;4.10;;
62880;SDS011;48969;49.934;8.596;2022-10-16T15:04:53;4.43;;;3.60;;
62880;SDS011;48969;49.934;8.596;2022-10-16T15:07:18;5.97;;;4.05;;
62880;SDS011;48969;49.934;8.596;2022-10-16T15:09:43;5.43;;;4.38;;
62880;SDS011;48969;49.934;8.596;2022-10-16T15:12:08;6.60;;;4.70;;
62880;SDS011;48969;49.934;8.596;2022-10-16T15:14:34;5.38;;;4.75;;
62880;SDS011;48969;49.934;8.596;2022-10-16T15:16:59;5.47;;;4.40;;
62880;SDS011;48969;49.934;8.596;2022-10-16T15:19:24;5.75;;;4.03;;
62880;SDS011;48969;49.934;8.596;2022-10-16T15:21:49;5.35;;;4.10;;
62880;SDS011;48969;49.934;8.596;2022-10-16T15:24:14;5.05;;;4.18;;
62880;SDS011;48969;49.934;8.596;2022-10-16T15:26:40;4.88;;;4.00;;
62880;SDS011;48969;49.934;8.596;2022-10-16T15:29:05;5.53;;;4.05;;
62880;SDS011;48969;49.934;8.596;2022-10-16T15:31:31;4.60;;;4.15;;
62880;SDS011;48969;49.934;8.596;2022-10-16T15:33:56;4.30;;;3.83;;
62880;SDS011;48969;49.934;8.596;2022-10-16T15:36:27;5.13;;;3.42;;
62880;SDS011;48969;49.934;8.596;2022-10-16T15:38:52;6.65;;;3.42;;
62880;SDS011;48969;49.934;8.596;2022-10-16T15:41:18;6.82;;;3.95;;
62880;SDS011;48969;49.934;8.596;2022-10-16T15:43:43;4.05;;;3.10;;
62880;SDS011;48969;49.934;8.596;2022-10-16T15:46:10;3.87;;;3.43;;
62880;SDS011;48969;49.934;8.596;2022-10-16T15:48:36;5.38;;;3.65;;
62880;SDS011;48969;49.934;8.596;2022-10-16T15:51:03;3.67;;;3.10;;
62880;SDS011;48969;49.934;8.596;2022-10-16T15:53:29;4.85;;;3.28;;
62880;SDS011;48969;49.934;8.596;2022-10-16T15:55:55;4.20;;;3.40;;
62880;SDS011;48969;49.934;8.596;2022-10-16T15:58:20;4.60;;;3.50;;
62880;SDS011;48969;49.934;8.596;2022-10-16T16:00:45;7.85;;;3.90;;
62880;SDS011;48969;49.934;8.596;2022-10-16T16:03:10;5.30;;;3.97;;
62880;SDS011;48969;49.934;8.596;2022-10-16T16:05:37;4.27;;;3.80;;
62880;SDS011;48969;49.934;8.596;2022-10-16T16:08:02;7.75;;;3.95;;
62880;SDS011;48969;49.934;8.596;2022-10-16T16:10:28;4.50;;;3.50;;
62880;SDS011;48969;49.934;8.596;2022-10-16T16:12:53;5.85;;;3.35;;
62880;SDS011;48969;49.934;8.596;2022-10-16T16:15:19;5.27;;;3.50;;
62880;SDS011;48969;49.934;8.596;2022-10-16T16:17:44;5.50;;;3.40;;
62880;SDS011;48969;49.934;8.596;2022-10-16T16:20:10;5.78;;;3.72;;
62880;SDS011;48969;49.934;8.596;2022-10-16T16:22:35;4.55;;;3.53;;
62880;SDS011;48969;49.934;8.596;2022-10-16T16:25:00;5.82;;;4.15;;
62880;SDS011;48969;49.934;8.596;2022-10-16T16:27:26;4.90;;;3.90;;
62880;SDS011;48969;49.934;8.596;2022-10-16T16:29:51;5.03;;;4.10;;
62880;SDS011;48969;49.934;8.596;2022-10-16T16:32:16;5.63;;;4.13;;
62880;SDS011;48969;49.934;8.596;2022-10-16T16:34:41;5.67;;;4.07;;
62880;SDS011;48969;49.934;8.596;2022-10-16T16:37:07;9.85;;;4.63;;
62880;SDS011;48969;49.934;8.596;2022-10-16T16:39:32;8.48;;;4.72;;
62880;SDS011;48969;49.934;8.596;2022-10-16T16:41:57;6.63;;;4.50;;
62880;SDS011;48969;49.934;8.596;2022-10-16T16:44:27;7.25;;;4.55;;
62880;SDS011;48969;49.934;8.596;2022-10-16T16:46:52;6.90;;;3.90;;
62880;SDS011;48969;49.934;8.596;2022-10-16T16:49:19;6.82;;;4.68;;
62880;SDS011;48969;49.934;8.596;2022-10-16T16:51:44;8.73;;;4.60;;
62880;SDS011;48969;49.934;8.596;2022-10-16T16:54:10;5.30;;;4.30;;
62880;SDS011;48969;49.934;8.596;2022-10-16T16:56:36;5.25;;;3.92;;
62880;SDS011;48969;49.934;8.596;2022-10-16T16:59:02;7.57;;;3.88;;
62880;SDS011;48969;49.934;8.596;2022-10-16T17:01:27;5.20;;;4.07;;
62880;SDS011;48969;49.934;8.596;2022-10-16T17:03:53;8.52;;;3.97;;
62880;SDS011;48969;49.934;8.596;2022-10-16T17:06:22;6.72;;;4.38;;
62880;SDS011;48969;49.934;8.596;2022-10-16T17:08:48;5.20;;;4.20;;